sensor_id;sensor_type;location;lat;lon;timestamp;P1;durP1;ratioP1;P2;durP2;ratioP2
23206;SDS011;11773;52.570;13.052;2024-02-26T00:01:12;2.00;;;1.80;;
23206;SDS011;11773;52.570;13.052;2024-02-26T00:03:42;1.63;;;1.53;;
23206;SDS011;11773;52.570;13.052;2024-02-26T00:06:12;2.00;;;1.80;;
23206;SDS011;11773;52.570;13.052;2024-02-26T00:08:42;2.10;;;1.90;;
23206;SDS011;11773;52.570;13.052;2024-02-26T00:11:12;1.80;;;1.67;;
23206;SDS011;11773;52.570;13.052;2024-02-26T00:13:41;1.80;;;1.70;;
23206;SDS011;11773;52.570;13.052;2024-02-26T00:16:11;1.60;;;1.50;;
23206;SDS011;11773;52.570;13.052;2024-02-26T00:18:40;1.30;;;1.20;;
23206;SDS011;11773;52.570;13.052;2024-02-26T00:21:12;1.43;;;1.33;;
23206;SDS011;11773;52.570;13.052;2024-02-26T00:23:41;1.63;;;1.53;;
23206;SDS011;11773;52.570;13.052;2024-02-26T00:26:12;1.73;;;1.63;;
23206;SDS011;11773;52.570;13.052;2024-02-26T00:28:42;2.00;;;1.80;;
23206;SDS011;11773;52.570;13.052;2024-02-26T00:31:12;1.67;;;1.33;;
23206;SDS011;11773;52.570;13.052;2024-02-26T00:33:41;1.83;;;1.50;;
23206;SDS011;11773;52.570;13.052;2024-02-26T00:36:11;1.70;;;1.60;;
23206;SDS011;11773;52.570;13.052;2024-02-26T00:38:41;1.80;;;1.50;;
23206;SDS011;11773;52.570;13.052;2024-02-26T00:41:12;1.83;;;1.70;;
23206;SDS011;11773;52.570;13.052;2024-02-26T00:43:41;1.73;;;1.63;;
23206;SDS011;11773;52.570;13.052;2024-02-26T00:46:11;1.60;;;1.50;;
23206;SDS011;11773;52.570;13.052;2024-02-26T00:48:40;1.90;;;1.67;;
23206;SDS011;11773;52.570;13.052;2024-02-26T00:51:11;1.57;;;1.47;;
23206;SDS011;11773;52.570;13.052;2024-02-26T00:53:40;2.00;;;1.57;;
23206;SDS011;11773;52.570;13.052;2024-02-26T00:56:10;1.63;;;1.53;;
23206;SDS011;11773;52.570;13.052;2024-02-26T00:58:39;1.80;;;1.60;;
23206;SDS011;11773;52.570;13.052;2024-02-26T01:01:09;1.90;;;1.80;;
23206;SDS011;11773;52.570;13.052;2024-02-26T01:03:39;2.07;;;1.83;;
23206;SDS011;11773;52.570;13.052;2024-02-26T01:06:09;1.60;;;1.50;;
23206;SDS011;11773;52.570;13.052;2024-02-26T01:08:38;2.00;;;1.57;;
23206;SDS011;11773;52.570;13.052;2024-02-26T01:11:08;1.87;;;1.77;;
23206;SDS011;11773;52.570;13.052;2024-02-26T01:13:37;1.30;;;1.17;;
23206;SDS011;11773;52.570;13.052;2024-02-26T01:16:07;1.50;;;1.40;;
23206;SDS011;11773;52.570;13.052;2024-02-26T01:18:37;1.50;;;1.40;;
23206;SDS011;11773;52.570;13.052;2024-02-26T01:21:07;1.90;;;1.70;;
23206;SDS011;11773;52.570;13.052;2024-02-26T01:23:37;1.70;;;1.60;;
23206;SDS011;11773;52.570;13.052;2024-02-26T01:26:06;2.13;;;1.60;;
23206;SDS011;11773;52.570;13.052;2024-02-26T01:28:36;1.73;;;1.57;;
23206;SDS011;11773;52.570;13.052;2024-02-26T01:31:05;1.90;;;1.70;;
23206;SDS011;11773;52.570;13.052;2024-02-26T01:33:36;1.70;;;1.60;;
23206;SDS011;11773;52.570;13.052;2024-02-26T01:36:06;1.47;;;1.37;;
23206;SDS011;11773;52.570;13.052;2024-02-26T01:38:36;1.90;;;1.67;;
23206;SDS011;11773;52.570;13.052;2024-02-26T01:41:05;2.20;;;1.90;;
23206;SDS011;11773;52.570;13.052;2024-02-26T01:43:35;1.90;;;1.70;;
23206;SDS011;11773;52.570;13.052;2024-02-26T01:46:04;1.90;;;1.67;;
23206;SDS011;11773;52.570;13.052;2024-02-26T01:48:36;2.00;;;1.70;;
23206;SDS011;11773;52.570;13.052;2024-02-26T01:51:06;2.00;;;1.90;;
23206;SDS011;11773;52.570;13.052;2024-02-26T01:53:37;2.00;;;1.67;;
23206;SDS011;11773;52.570;13.052;2024-02-26T01:56:08;1.57;;;1.47;;
23206;SDS011;11773;52.570;13.052;2024-02-26T01:58:38;1.63;;;1.53;;
23206;SDS011;11773;52.570;13.052;2024-02-26T02:01:08;1.75;;;1.60;;
23206;SDS011;11773;52.570;13.052;2024-02-26T02:03:38;1.70;;;1.60;;
23206;SDS011;11773;52.570;13.052;2024-02-26T02:06:08;1.97;;;1.73;;
23206;SDS011;11773;52.570;13.052;2024-02-26T02:08:39;2.20;;;2.00;;
23206;SDS011;11773;52.570;13.052;2024-02-26T02:11:10;1.70;;;1.60;;
23206;SDS011;11773;52.570;13.052;2024-02-26T02:13:41;2.17;;;1.97;;
23206;SDS011;11773;52.570;13.052;2024-02-26T02:16:11;2.30;;;1.80;;
23206;SDS011;11773;52.570;13.052;2024-02-26T02:18:42;2.00;;;1.57;;
23206;SDS011;11773;52.570;13.052;2024-02-26T02:21:11;1.62;;;1.52;;
23206;SDS011;11773;52.570;13.052;2024-02-26T02:23:41;1.93;;;1.73;;
23206;SDS011;11773;52.570;13.052;2024-02-26T02:26:13;1.57;;;1.47;;
23206;SDS011;11773;52.570;13.052;2024-02-26T02:28:43;2.13;;;1.93;;
23206;SDS011;11773;52.570;13.052;2024-02-26T02:31:15;2.03;;;1.77;;
23206;SDS011;11773;52.570;13.052;2024-02-26T02:33:45;1.83;;;1.60;;
23206;SDS011;11773;52.570;13.052;2024-02-26T02:36:15;1.63;;;1.47;;
23206;SDS011;11773;52.570;13.052;2024-02-26T02:38:50;1.43;;;1.33;;
23206;SDS011;11773;52.570;13.052;2024-02-26T02:41:20;1.30;;;1.20;;
23206;SDS011;11773;52.570;13.052;2024-02-26T02:43:50;1.60;;;1.37;;
23206;SDS011;11773;52.570;13.052;2024-02-26T02:46:19;1.77;;;1.67;;
23206;SDS011;11773;52.570;13.052;2024-02-26T02:48:49;2.20;;;1.90;;
23206;SDS011;11773;52.570;13.052;2024-02-26T02:51:18;2.23;;;2.03;;
23206;SDS011;11773;52.570;13.052;2024-02-26T02:53:48;1.67;;;1.57;;
23206;SDS011;11773;52.570;13.052;2024-02-26T02:56:18;1.83;;;1.70;;
23206;SDS011;11773;52.570;13.052;2024-02-26T02:58:47;2.33;;;2.13;;
23206;SDS011;11773;52.570;13.052;2024-02-26T03:01:17;1.87;;;1.70;;
23206;SDS011;11773;52.570;13.052;2024-02-26T03:03:46;2.63;;;2.00;;
23206;SDS011;11773;52.570;13.052;2024-02-26T03:06:16;1.87;;;1.60;;
23206;SDS011;11773;52.570;13.052;2024-02-26T03:08:47;2.23;;;1.93;;
23206;SDS011;11773;52.570;13.052;2024-02-26T03:11:17;2.23;;;2.03;;
23206;SDS011;11773;52.570;13.052;2024-02-26T03:13:46;1.90;;;1.70;;
23206;SDS011;11773;52.570;13.052;2024-02-26T03:16:16;1.50;;;1.40;;
23206;SDS011;11773;52.570;13.052;2024-02-26T03:18:46;1.83;;;1.70;;
23206;SDS011;11773;52.570;13.052;2024-02-26T03:21:16;1.50;;;1.40;;
23206;SDS011;11773;52.570;13.052;2024-02-26T03:23:46;1.80;;;1.50;;
23206;SDS011;11773;52.570;13.052;2024-02-26T03:26:16;1.63;;;1.47;;
23206;SDS011;11773;52.570;13.052;2024-02-26T03:28:45;1.80;;;1.50;;
23206;SDS011;11773;52.570;13.052;2024-02-26T03:31:15;1.93;;;1.57;;
23206;SDS011;11773;52.570;13.052;2024-02-26T03:33:44;1.53;;;1.40;;
23206;SDS011;11773;52.570;13.052;2024-02-26T03:36:14;1.20;;;1.10;;
23206;SDS011;11773;52.570;13.052;2024-02-26T03:38:44;1.30;;;1.20;;
23206;SDS011;11773;52.570;13.052;2024-02-26T03:41:14;1.43;;;1.33;;
23206;SDS011;11773;52.570;13.052;2024-02-26T03:43:43;2.10;;;1.57;;
23206;SDS011;11773;52.570;13.052;2024-02-26T03:46:13;1.43;;;1.30;;
23206;SDS011;11773;52.570;13.052;2024-02-26T03:48:42;2.17;;;1.67;;
23206;SDS011;11773;52.570;13.052;2024-02-26T03:51:12;1.40;;;1.30;;
23206;SDS011;11773;52.570;13.052;2024-02-26T03:53:42;1.40;;;1.30;;
23206;SDS011;11773;52.570;13.052;2024-02-26T03:56:11;1.60;;;1.40;;
23206;SDS011;11773;52.570;13.052;2024-02-26T03:58:41;1.37;;;1.27;;
23206;SDS011;11773;52.570;13.052;2024-02-26T04:01:10;1.23;;;1.13;;
23206;SDS011;11773;52.570;13.052;2024-02-26T04:03:40;1.87;;;1.77;;
23206;SDS011;11773;52.570;13.052;2024-02-26T04:06:11;1.83;;;1.37;;
23206;SDS011;11773;52.570;13.052;2024-02-26T04:08:45;1.57;;;1.40;;
23206;SDS011;11773;52.570;13.052;2024-02-26T04:11:16;1.77;;;1.10;;
23206;SDS011;11773;52.570;13.052;2024-02-26T04:13:46;1.10;;;1.10;;
23206;SDS011;11773;52.570;13.052;2024-02-26T04:16:17;1.63;;;1.27;;
23206;SDS011;11773;52.570;13.052;2024-02-26T04:18:46;0.80;;;0.80;;
23206;SDS011;11773;52.570;13.052;2024-02-26T04:21:16;1.33;;;1.23;;
23206;SDS011;11773;52.570;13.052;2024-02-26T04:23:46;1.10;;;1.00;;
23206;SDS011;11773;52.570;13.052;2024-02-26T04:26:16;1.20;;;1.10;;
23206;SDS011;11773;52.570;13.052;2024-02-26T04:28:45;1.27;;;1.10;;
23206;SDS011;11773;52.570;13.052;2024-02-26T04:31:15;1.17;;;1.07;;
23206;SDS011;11773;52.570;13.052;2024-02-26T04:33:45;1.40;;;1.30;;
23206;SDS011;11773;52.570;13.052;2024-02-26T04:36:14;1.13;;;1.00;;
23206;SDS011;11773;52.570;13.052;2024-02-26T04:38:44;1.33;;;1.20;;
23206;SDS011;11773;52.570;13.052;2024-02-26T04:41:14;1.10;;;1.03;;
23206;SDS011;11773;52.570;13.052;2024-02-26T04:43:44;1.50;;;1.20;;
23206;SDS011;11773;52.570;13.052;2024-02-26T04:46:13;0.97;;;0.80;;
23206;SDS011;11773;52.570;13.052;2024-02-26T04:48:43;1.23;;;1.00;;
23206;SDS011;11773;52.570;13.052;2024-02-26T04:51:13;1.37;;;0.97;;
23206;SDS011;11773;52.570;13.052;2024-02-26T04:53:43;1.23;;;1.13;;
23206;SDS011;11773;52.570;13.052;2024-02-26T04:56:12;1.30;;;1.20;;
23206;SDS011;11773;52.570;13.052;2024-02-26T04:58:42;1.00;;;0.90;;
23206;SDS011;11773;52.570;13.052;2024-02-26T05:01:12;0.83;;;0.80;;
23206;SDS011;11773;52.570;13.052;2024-02-26T05:03:43;1.10;;;1.00;;
23206;SDS011;11773;52.570;13.052;2024-02-26T05:06:13;1.00;;;1.00;;
23206;SDS011;11773;52.570;13.052;2024-02-26T05:08:42;0.90;;;0.90;;
23206;SDS011;11773;52.570;13.052;2024-02-26T05:11:13;1.40;;;1.20;;
23206;SDS011;11773;52.570;13.052;2024-02-26T05:13:44;1.30;;;1.20;;
23206;SDS011;11773;52.570;13.052;2024-02-26T05:16:13;1.00;;;0.90;;
23206;SDS011;11773;52.570;13.052;2024-02-26T05:18:43;1.40;;;1.30;;
23206;SDS011;11773;52.570;13.052;2024-02-26T05:21:13;0.83;;;0.73;;
23206;SDS011;11773;52.570;13.052;2024-02-26T05:23:42;1.27;;;1.17;;
23206;SDS011;11773;52.570;13.052;2024-02-26T05:26:18;1.07;;;1.00;;
23206;SDS011;11773;52.570;13.052;2024-02-26T05:28:50;1.60;;;1.40;;
23206;SDS011;11773;52.570;13.052;2024-02-26T05:31:19;1.13;;;1.10;;
23206;SDS011;11773;52.570;13.052;2024-02-26T05:33:49;1.37;;;1.20;;
23206;SDS011;11773;52.570;13.052;2024-02-26T05:36:20;2.10;;;1.90;;
23206;SDS011;11773;52.570;13.052;2024-02-26T05:38:50;1.50;;;1.40;;
23206;SDS011;11773;52.570;13.052;2024-02-26T05:41:20;1.43;;;1.33;;
23206;SDS011;11773;52.570;13.052;2024-02-26T05:43:53;2.50;;;2.00;;
23206;SDS011;11773;52.570;13.052;2024-02-26T05:46:23;1.37;;;1.27;;
23206;SDS011;11773;52.570;13.052;2024-02-26T05:48:54;2.00;;;1.53;;
23206;SDS011;11773;52.570;13.052;2024-02-26T05:51:24;1.77;;;1.67;;
23206;SDS011;11773;52.570;13.052;2024-02-26T05:53:53;1.73;;;1.63;;
23206;SDS011;11773;52.570;13.052;2024-02-26T05:56:23;1.97;;;1.73;;
23206;SDS011;11773;52.570;13.052;2024-02-26T05:58:53;1.50;;;1.40;;
23206;SDS011;11773;52.570;13.052;2024-02-26T06:01:22;2.17;;;1.70;;
23206;SDS011;11773;52.570;13.052;2024-02-26T06:03:52;1.00;;;1.00;;
23206;SDS011;11773;52.570;13.052;2024-02-26T06:06:22;1.33;;;1.00;;
23206;SDS011;11773;52.570;13.052;2024-02-26T06:08:52;1.73;;;1.20;;
23206;SDS011;11773;52.570;13.052;2024-02-26T06:11:22;1.37;;;1.10;;
23206;SDS011;11773;52.570;13.052;2024-02-26T06:13:51;1.00;;;0.90;;
23206;SDS011;11773;52.570;13.052;2024-02-26T06:16:21;0.80;;;0.80;;
23206;SDS011;11773;52.570;13.052;2024-02-26T06:18:51;1.30;;;1.20;;
23206;SDS011;11773;52.570;13.052;2024-02-26T06:21:21;1.00;;;0.90;;
23206;SDS011;11773;52.570;13.052;2024-02-26T06:23:50;1.40;;;1.23;;
23206;SDS011;11773;52.570;13.052;2024-02-26T06:26:20;1.10;;;1.00;;
23206;SDS011;11773;52.570;13.052;2024-02-26T06:28:49;1.17;;;1.07;;
23206;SDS011;11773;52.570;13.052;2024-02-26T06:31:19;1.50;;;1.40;;
23206;SDS011;11773;52.570;13.052;2024-02-26T06:33:50;1.03;;;0.97;;
23206;SDS011;11773;52.570;13.052;2024-02-26T06:36:20;1.50;;;1.40;;
23206;SDS011;11773;52.570;13.052;2024-02-26T06:38:50;1.50;;;1.40;;
23206;SDS011;11773;52.570;13.052;2024-02-26T06:41:21;1.83;;;1.63;;
23206;SDS011;11773;52.570;13.052;2024-02-26T06:43:55;2.87;;;1.50;;
23206;SDS011;11773;52.570;13.052;2024-02-26T06:46:24;2.47;;;1.80;;
23206;SDS011;11773;52.570;13.052;2024-02-26T06:48:55;1.80;;;1.70;;
23206;SDS011;11773;52.570;13.052;2024-02-26T06:51:25;1.63;;;1.10;;
23206;SDS011;11773;52.570;13.052;2024-02-26T06:53:55;1.63;;;1.20;;
23206;SDS011;11773;52.570;13.052;2024-02-26T06:56:24;1.40;;;1.30;;
23206;SDS011;11773;52.570;13.052;2024-02-26T06:58:54;1.60;;;1.30;;
23206;SDS011;11773;52.570;13.052;2024-02-26T07:01:24;1.60;;;1.50;;
23206;SDS011;11773;52.570;13.052;2024-02-26T07:03:53;1.37;;;1.23;;
23206;SDS011;11773;52.570;13.052;2024-02-26T07:06:23;1.20;;;1.10;;
23206;SDS011;11773;52.570;13.052;2024-02-26T07:08:53;1.97;;;1.30;;
23206;SDS011;11773;52.570;13.052;2024-02-26T07:11:23;1.33;;;1.20;;
23206;SDS011;11773;52.570;13.052;2024-02-26T07:13:52;1.07;;;0.97;;
23206;SDS011;11773;52.570;13.052;2024-02-26T07:16:22;1.17;;;1.07;;
23206;SDS011;11773;52.570;13.052;2024-02-26T07:18:52;2.37;;;1.53;;
23206;SDS011;11773;52.570;13.052;2024-02-26T07:21:21;1.27;;;1.10;;
23206;SDS011;11773;52.570;13.052;2024-02-26T07:23:51;1.20;;;1.00;;
23206;SDS011;11773;52.570;13.052;2024-02-26T07:26:21;1.20;;;1.10;;
23206;SDS011;11773;52.570;13.052;2024-02-26T07:28:53;1.20;;;1.10;;
23206;SDS011;11773;52.570;13.052;2024-02-26T07:31:22;2.10;;;1.83;;
23206;SDS011;11773;52.570;13.052;2024-02-26T07:33:52;1.87;;;1.60;;
23206;SDS011;11773;52.570;13.052;2024-02-26T07:36:22;1.43;;;1.30;;
23206;SDS011;11773;52.570;13.052;2024-02-26T07:38:51;1.93;;;1.80;;
23206;SDS011;11773;52.570;13.052;2024-02-26T07:41:21;1.63;;;1.47;;
23206;SDS011;11773;52.570;13.052;2024-02-26T07:43:51;2.83;;;1.90;;
23206;SDS011;11773;52.570;13.052;2024-02-26T07:46:20;1.63;;;1.43;;
23206;SDS011;11773;52.570;13.052;2024-02-26T07:48:50;1.67;;;1.57;;
23206;SDS011;11773;52.570;13.052;2024-02-26T07:51:20;2.33;;;1.83;;
23206;SDS011;11773;52.570;13.052;2024-02-26T07:53:50;2.00;;;1.80;;
23206;SDS011;11773;52.570;13.052;2024-02-26T07:56:20;1.70;;;1.60;;
23206;SDS011;11773;52.570;13.052;2024-02-26T07:58:49;1.50;;;1.30;;
23206;SDS011;11773;52.570;13.052;2024-02-26T08:01:19;2.10;;;1.90;;
23206;SDS011;11773;52.570;13.052;2024-02-26T08:03:48;1.50;;;1.40;;
23206;SDS011;11773;52.570;13.052;2024-02-26T08:06:18;1.87;;;1.53;;
23206;SDS011;11773;52.570;13.052;2024-02-26T08:08:48;2.50;;;2.30;;
23206;SDS011;11773;52.570;13.052;2024-02-26T08:11:18;3.07;;;2.77;;
23206;SDS011;11773;52.570;13.052;2024-02-26T08:13:48;4.07;;;3.33;;
23206;SDS011;11773;52.570;13.052;2024-02-26T08:16:17;3.43;;;2.93;;
23206;SDS011;11773;52.570;13.052;2024-02-26T08:18:47;2.50;;;2.30;;
23206;SDS011;11773;52.570;13.052;2024-02-26T08:21:17;1.67;;;1.57;;
23206;SDS011;11773;52.570;13.052;2024-02-26T08:23:46;3.63;;;2.40;;
23206;SDS011;11773;52.570;13.052;2024-02-26T08:26:16;2.50;;;1.90;;
23206;SDS011;11773;52.570;13.052;2024-02-26T08:28:47;2.47;;;2.27;;
23206;SDS011;11773;52.570;13.052;2024-02-26T08:31:18;3.07;;;2.77;;
23206;SDS011;11773;52.570;13.052;2024-02-26T08:33:48;2.60;;;2.40;;
23206;SDS011;11773;52.570;13.052;2024-02-26T08:36:18;3.47;;;3.03;;
23206;SDS011;11773;52.570;13.052;2024-02-26T08:38:47;3.57;;;3.27;;
23206;SDS011;11773;52.570;13.052;2024-02-26T08:41:17;2.87;;;2.57;;
23206;SDS011;11773;52.570;13.052;2024-02-26T08:43:46;2.93;;;2.10;;
23206;SDS011;11773;52.570;13.052;2024-02-26T08:46:16;1.87;;;1.77;;
23206;SDS011;11773;52.570;13.052;2024-02-26T08:48:45;2.20;;;2.00;;
23206;SDS011;11773;52.570;13.052;2024-02-26T08:51:15;3.23;;;2.93;;
23206;SDS011;11773;52.570;13.052;2024-02-26T08:53:45;2.10;;;1.90;;
23206;SDS011;11773;52.570;13.052;2024-02-26T08:56:15;2.67;;;2.47;;
23206;SDS011;11773;52.570;13.052;2024-02-26T08:58:46;3.87;;;3.27;;
23206;SDS011;11773;52.570;13.052;2024-02-26T09:01:21;4.00;;;2.93;;
23206;SDS011;11773;52.570;13.052;2024-02-26T09:03:50;4.07;;;2.83;;
23206;SDS011;11773;52.570;13.052;2024-02-26T09:06:20;3.07;;;2.77;;
23206;SDS011;11773;52.570;13.052;2024-02-26T09:08:50;3.50;;;3.00;;
23206;SDS011;11773;52.570;13.052;2024-02-26T09:11:19;4.30;;;3.30;;
23206;SDS011;11773;52.570;13.052;2024-02-26T09:13:49;5.20;;;4.00;;
23206;SDS011;11773;52.570;13.052;2024-02-26T09:16:18;4.90;;;4.30;;
23206;SDS011;11773;52.570;13.052;2024-02-26T09:18:48;5.27;;;4.63;;
23206;SDS011;11773;52.570;13.052;2024-02-26T09:21:18;6.37;;;5.57;;
23206;SDS011;11773;52.570;13.052;2024-02-26T09:23:50;5.97;;;5.37;;
23206;SDS011;11773;52.570;13.052;2024-02-26T09:26:20;4.27;;;3.87;;
23206;SDS011;11773;52.570;13.052;2024-02-26T09:28:50;3.87;;;3.50;;
23206;SDS011;11773;52.570;13.052;2024-02-26T09:31:20;5.57;;;4.47;;
23206;SDS011;11773;52.570;13.052;2024-02-26T09:33:49;4.57;;;3.93;;
23206;SDS011;11773;52.570;13.052;2024-02-26T09:36:19;4.20;;;3.80;;
23206;SDS011;11773;52.570;13.052;2024-02-26T09:38:49;4.10;;;3.70;;
23206;SDS011;11773;52.570;13.052;2024-02-26T09:41:20;4.93;;;3.80;;
23206;SDS011;11773;52.570;13.052;2024-02-26T09:43:49;3.53;;;3.23;;
23206;SDS011;11773;52.570;13.052;2024-02-26T09:46:23;3.47;;;3.13;;
23206;SDS011;11773;52.570;13.052;2024-02-26T09:48:54;3.43;;;3.10;;
23206;SDS011;11773;52.570;13.052;2024-02-26T09:51:24;3.30;;;3.00;;
23206;SDS011;11773;52.570;13.052;2024-02-26T09:53:56;3.47;;;3.17;;
23206;SDS011;11773;52.570;13.052;2024-02-26T09:56:30;4.90;;;4.40;;
23206;SDS011;11773;52.570;13.052;2024-02-26T09:59:00;4.50;;;3.90;;
23206;SDS011;11773;52.570;13.052;2024-02-26T10:01:33;4.08;;;3.65;;
23206;SDS011;11773;52.570;13.052;2024-02-26T10:04:05;3.47;;;3.17;;
23206;SDS011;11773;52.570;13.052;2024-02-26T10:06:38;4.07;;;3.40;;
23206;SDS011;11773;52.570;13.052;2024-02-26T10:09:11;3.50;;;3.20;;
23206;SDS011;11773;52.570;13.052;2024-02-26T10:11:43;3.33;;;2.90;;
23206;SDS011;11773;52.570;13.052;2024-02-26T10:14:14;3.83;;;3.43;;
23206;SDS011;11773;52.570;13.052;2024-02-26T10:16:44;5.10;;;4.13;;
23206;SDS011;11773;52.570;13.052;2024-02-26T10:19:37;3.77;;;3.47;;
23206;SDS011;11773;52.570;13.052;2024-02-26T10:22:00;3.80;;;3.40;;
23206;SDS011;11773;52.570;13.052;2024-02-26T10:24:31;3.77;;;3.27;;
23206;SDS011;11773;52.570;13.052;2024-02-26T10:27:02;4.17;;;3.77;;
23206;SDS011;11773;52.570;13.052;2024-02-26T10:29:32;4.23;;;3.50;;
23206;SDS011;11773;52.570;13.052;2024-02-26T10:32:03;4.30;;;3.50;;
23206;SDS011;11773;52.570;13.052;2024-02-26T10:34:33;4.10;;;3.70;;
23206;SDS011;11773;52.570;13.052;2024-02-26T10:37:09;3.53;;;3.10;;
23206;SDS011;11773;52.570;13.052;2024-02-26T10:39:38;5.37;;;3.80;;
23206;SDS011;11773;52.570;13.052;2024-02-26T10:42:12;5.10;;;4.07;;
23206;SDS011;11773;52.570;13.052;2024-02-26T10:44:42;3.90;;;3.50;;
23206;SDS011;11773;52.570;13.052;2024-02-26T10:47:12;4.00;;;3.60;;
23206;SDS011;11773;52.570;13.052;2024-02-26T10:49:46;3.40;;;3.10;;
23206;SDS011;11773;52.570;13.052;2024-02-26T10:52:18;4.40;;;4.00;;
23206;SDS011;11773;52.570;13.052;2024-02-26T10:54:56;3.63;;;3.20;;
23206;SDS011;11773;52.570;13.052;2024-02-26T10:57:35;4.50;;;4.00;;
23206;SDS011;11773;52.570;13.052;2024-02-26T11:00:13;4.43;;;3.40;;
23206;SDS011;11773;52.570;13.052;2024-02-26T11:02:44;3.53;;;3.00;;
23206;SDS011;11773;52.570;13.052;2024-02-26T11:05:16;4.23;;;3.83;;
23206;SDS011;11773;52.570;13.052;2024-02-26T11:07:47;4.90;;;4.20;;
23206;SDS011;11773;52.570;13.052;2024-02-26T11:10:18;5.07;;;4.57;;
23206;SDS011;11773;52.570;13.052;2024-02-26T11:12:48;6.00;;;5.10;;
23206;SDS011;11773;52.570;13.052;2024-02-26T11:15:20;4.80;;;4.23;;
23206;SDS011;11773;52.570;13.052;2024-02-26T11:17:52;4.30;;;3.80;;
23206;SDS011;11773;52.570;13.052;2024-02-26T11:20:24;3.40;;;3.10;;
23206;SDS011;11773;52.570;13.052;2024-02-26T11:22:57;3.60;;;3.30;;
23206;SDS011;11773;52.570;13.052;2024-02-26T11:25:26;4.03;;;3.10;;
23206;SDS011;11773;52.570;13.052;2024-02-26T11:27:57;3.13;;;2.80;;
23206;SDS011;11773;52.570;13.052;2024-02-26T11:30:33;3.43;;;3.13;;
23206;SDS011;11773;52.570;13.052;2024-02-26T11:33:08;3.63;;;3.03;;
23206;SDS011;11773;52.570;13.052;2024-02-26T11:35:40;3.60;;;3.30;;
23206;SDS011;11773;52.570;13.052;2024-02-26T11:38:12;3.30;;;3.00;;
23206;SDS011;11773;52.570;13.052;2024-02-26T11:40:52;4.00;;;3.10;;
23206;SDS011;11773;52.570;13.052;2024-02-26T11:46:32;3.40;;;3.10;;
23206;SDS011;11773;52.570;13.052;2024-02-26T11:51:59;3.40;;;3.03;;
23206;SDS011;11773;52.570;13.052;2024-02-26T11:54:43;4.00;;;3.30;;
23206;SDS011;11773;52.570;13.052;2024-02-26T11:57:28;3.27;;;2.90;;
23206;SDS011;11773;52.570;13.052;2024-02-26T12:00:14;5.40;;;4.90;;
23206;SDS011;11773;52.570;13.052;2024-02-26T12:02:46;4.40;;;3.73;;
23206;SDS011;11773;52.570;13.052;2024-02-26T12:05:32;4.53;;;4.10;;
23206;SDS011;11773;52.570;13.052;2024-02-26T12:08:04;3.53;;;3.23;;
23206;SDS011;11773;52.570;13.052;2024-02-26T12:10:37;4.27;;;3.50;;
23206;SDS011;11773;52.570;13.052;2024-02-26T12:13:09;4.13;;;3.73;;
23206;SDS011;11773;52.570;13.052;2024-02-26T12:15:45;5.17;;;4.60;;
23206;SDS011;11773;52.570;13.052;2024-02-26T12:18:27;4.40;;;4.00;;
23206;SDS011;11773;52.570;13.052;2024-02-26T12:20:58;4.10;;;3.70;;
23206;SDS011;11773;52.570;13.052;2024-02-26T12:23:30;3.90;;;3.50;;
23206;SDS011;11773;52.570;13.052;2024-02-26T12:26:00;3.73;;;3.40;;
23206;SDS011;11773;52.570;13.052;2024-02-26T12:28:31;3.70;;;3.23;;
23206;SDS011;11773;52.570;13.052;2024-02-26T12:31:01;3.30;;;2.83;;
23206;SDS011;11773;52.570;13.052;2024-02-26T12:33:31;3.23;;;2.60;;
23206;SDS011;11773;52.570;13.052;2024-02-26T12:36:02;2.73;;;2.53;;
23206;SDS011;11773;52.570;13.052;2024-02-26T12:38:32;4.10;;;2.50;;
23206;SDS011;11773;52.570;13.052;2024-02-26T12:41:03;2.60;;;2.40;;
23206;SDS011;11773;52.570;13.052;2024-02-26T12:43:34;2.20;;;2.00;;
23206;SDS011;11773;52.570;13.052;2024-02-26T12:46:04;2.37;;;2.17;;
23206;SDS011;11773;52.570;13.052;2024-02-26T12:48:34;3.27;;;2.97;;
23206;SDS011;11773;52.570;13.052;2024-02-26T12:51:04;3.00;;;2.80;;
23206;SDS011;11773;52.570;13.052;2024-02-26T12:53:37;2.90;;;2.50;;
23206;SDS011;11773;52.570;13.052;2024-02-26T12:56:07;2.40;;;2.20;;
23206;SDS011;11773;52.570;13.052;2024-02-26T14:12:58;1.47;;;1.37;;
23206;SDS011;11773;52.570;13.052;2024-02-26T14:15:28;1.40;;;1.30;;
23206;SDS011;11773;52.570;13.052;2024-02-26T14:17:59;1.67;;;1.47;;
23206;SDS011;11773;52.570;13.052;2024-02-26T14:20:31;1.50;;;1.40;;
23206;SDS011;11773;52.570;13.052;2024-02-26T14:23:00;1.50;;;1.40;;
23206;SDS011;11773;52.570;13.052;2024-02-26T14:25:30;1.60;;;1.50;;
23206;SDS011;11773;52.570;13.052;2024-02-26T14:28:00;2.10;;;1.90;;
23206;SDS011;11773;52.570;13.052;2024-02-26T14:30:29;1.43;;;1.33;;
23206;SDS011;11773;52.570;13.052;2024-02-26T14:32:59;1.57;;;1.47;;
23206;SDS011;11773;52.570;13.052;2024-02-26T14:35:31;2.13;;;1.93;;
23206;SDS011;11773;52.570;13.052;2024-02-26T14:38:00;1.67;;;1.57;;
23206;SDS011;11773;52.570;13.052;2024-02-26T14:40:30;1.50;;;1.30;;
23206;SDS011;11773;52.570;13.052;2024-02-26T14:43:00;1.33;;;1.20;;
23206;SDS011;11773;52.570;13.052;2024-02-26T14:45:31;0.80;;;0.80;;
23206;SDS011;11773;52.570;13.052;2024-02-26T14:48:01;1.40;;;1.30;;
23206;SDS011;11773;52.570;13.052;2024-02-26T14:50:31;1.00;;;1.00;;
23206;SDS011;11773;52.570;13.052;2024-02-26T14:53:00;1.20;;;1.10;;
23206;SDS011;11773;52.570;13.052;2024-02-26T14:55:30;1.63;;;1.43;;
23206;SDS011;11773;52.570;13.052;2024-02-26T14:58:01;2.03;;;1.83;;
23206;SDS011;11773;52.570;13.052;2024-02-26T15:00:31;3.73;;;1.60;;
23206;SDS011;11773;52.570;13.052;2024-02-26T15:03:03;1.67;;;1.57;;
23206;SDS011;11773;52.570;13.052;2024-02-26T15:05:33;2.70;;;2.30;;
23206;SDS011;11773;52.570;13.052;2024-02-26T15:08:03;2.30;;;2.10;;
23206;SDS011;11773;52.570;13.052;2024-02-26T15:10:35;1.40;;;1.30;;
23206;SDS011;11773;52.570;13.052;2024-02-26T15:13:04;1.50;;;1.40;;
23206;SDS011;11773;52.570;13.052;2024-02-26T15:15:35;2.20;;;2.00;;
23206;SDS011;11773;52.570;13.052;2024-02-26T15:18:06;1.70;;;1.60;;
23206;SDS011;11773;52.570;13.052;2024-02-26T15:20:38;1.80;;;1.70;;
23206;SDS011;11773;52.570;13.052;2024-02-26T15:23:09;1.70;;;1.60;;
23206;SDS011;11773;52.570;13.052;2024-02-26T15:25:39;1.93;;;1.73;;
23206;SDS011;11773;52.570;13.052;2024-02-26T15:28:08;2.10;;;1.90;;
23206;SDS011;11773;52.570;13.052;2024-02-26T15:30:39;1.60;;;1.50;;
23206;SDS011;11773;52.570;13.052;2024-02-26T15:33:09;1.80;;;1.70;;
23206;SDS011;11773;52.570;13.052;2024-02-26T15:35:40;2.40;;;2.20;;
23206;SDS011;11773;52.570;13.052;2024-02-26T15:38:11;2.47;;;2.27;;
23206;SDS011;11773;52.570;13.052;2024-02-26T15:40:41;2.03;;;1.93;;
23206;SDS011;11773;52.570;13.052;2024-02-26T15:43:11;1.97;;;1.77;;
23206;SDS011;11773;52.570;13.052;2024-02-26T15:45:42;3.30;;;2.90;;
23206;SDS011;11773;52.570;13.052;2024-02-26T15:48:12;2.47;;;2.27;;
23206;SDS011;11773;52.570;13.052;2024-02-26T15:50:42;3.40;;;2.83;;
23206;SDS011;11773;52.570;13.052;2024-02-26T15:53:12;2.70;;;2.37;;
23206;SDS011;11773;52.570;13.052;2024-02-26T15:55:42;2.40;;;2.20;;
23206;SDS011;11773;52.570;13.052;2024-02-26T15:58:11;2.47;;;2.27;;
23206;SDS011;11773;52.570;13.052;2024-02-26T16:00:41;2.30;;;2.10;;
23206;SDS011;11773;52.570;13.052;2024-02-26T16:03:11;2.70;;;2.43;;
23206;SDS011;11773;52.570;13.052;2024-02-26T16:05:42;3.00;;;2.60;;
23206;SDS011;11773;52.570;13.052;2024-02-26T16:08:14;2.30;;;2.10;;
23206;SDS011;11773;52.570;13.052;2024-02-26T16:10:49;2.70;;;2.50;;
23206;SDS011;11773;52.570;13.052;2024-02-26T16:13:19;2.63;;;2.43;;